sensor_id;sensor_type;location;lat;lon;timestamp;P1;durP1;ratioP1;P2;durP2;ratioP2
20623;SDS011;10471;42.736;23.346;2022-07-18T00:00:00;6.27;;;3.77;;
20623;SDS011;10471;42.736;23.346;2022-07-18T00:02:26;5.97;;;3.23;;
20623;SDS011;10471;42.736;23.346;2022-07-18T00:04:51;4.30;;;3.20;;
20623;SDS011;10471;42.736;23.346;2022-07-18T00:07:17;6.50;;;3.50;;
20623;SDS011;10471;42.736;23.346;2022-07-18T00:09:43;8.53;;;3.60;;
20623;SDS011;10471;42.736;23.346;2022-07-18T00:12:08;5.67;;;3.53;;
20623;SDS011;10471;42.736;23.346;2022-07-18T00:14:36;5.87;;;3.53;;
20623;SDS011;10471;42.736;23.346;2022-07-18T00:17:02;5.53;;;3.07;;
20623;SDS011;10471;42.736;23.346;2022-07-18T00:19:29;6.47;;;3.70;;
20623;SDS011;10471;42.736;23.346;2022-07-18T00:21:54;4.73;;;3.27;;
20623;SDS011;10471;42.736;23.346;2022-07-18T00:24:20;5.17;;;3.27;;
20623;SDS011;10471;42.736;23.346;2022-07-18T00:26:45;5.53;;;3.90;;
20623;SDS011;10471;42.736;23.346;2022-07-18T00:29:11;6.10;;;3.87;;
20623;SDS011;10471;42.736;23.346;2022-07-18T00:31:37;6.67;;;3.73;;
20623;SDS011;10471;42.736;23.346;2022-07-18T00:34:03;7.10;;;4.60;;
20623;SDS011;10471;42.736;23.346;2022-07-18T00:36:29;11.80;;;4.43;;
20623;SDS011;10471;42.736;23.346;2022-07-18T00:38:55;5.47;;;3.30;;
20623;SDS011;10471;42.736;23.346;2022-07-18T00:41:21;4.77;;;2.97;;
20623;SDS011;10471;42.736;23.346;2022-07-18T00:43:47;5.57;;;3.53;;
20623;SDS011;10471;42.736;23.346;2022-07-18T00:46:13;9.13;;;4.50;;
20623;SDS011;10471;42.736;23.346;2022-07-18T00:48:39;8.13;;;4.63;;
20623;SDS011;10471;42.736;23.346;2022-07-18T00:51:05;6.50;;;3.80;;
20623;SDS011;10471;42.736;23.346;2022-07-18T00:53:31;11.07;;;8.00;;
20623;SDS011;10471;42.736;23.346;2022-07-18T00:55:57;7.43;;;4.00;;
20623;SDS011;10471;42.736;23.346;2022-07-18T00:58:22;7.50;;;3.87;;
20623;SDS011;10471;42.736;23.346;2022-07-18T01:00:48;5.57;;;3.40;;
20623;SDS011;10471;42.736;23.346;2022-07-18T01:03:32;8.67;;;4.43;;
20623;SDS011;10471;42.736;23.346;2022-07-18T01:05:58;6.30;;;4.60;;
20623;SDS011;10471;42.736;23.346;2022-07-18T01:08:23;5.00;;;3.57;;
20623;SDS011;10471;42.736;23.346;2022-07-18T01:10:49;5.80;;;3.00;;
20623;SDS011;10471;42.736;23.346;2022-07-18T01:13:16;4.40;;;2.97;;
20623;SDS011;10471;42.736;23.346;2022-07-18T01:15:42;5.40;;;3.30;;
20623;SDS011;10471;42.736;23.346;2022-07-18T01:18:07;6.37;;;3.40;;
20623;SDS011;10471;42.736;23.346;2022-07-18T01:20:33;5.40;;;2.83;;
20623;SDS011;10471;42.736;23.346;2022-07-18T01:22:58;4.40;;;3.13;;
20623;SDS011;10471;42.736;23.346;2022-07-18T01:25:24;5.77;;;3.07;;
20623;SDS011;10471;42.736;23.346;2022-07-18T01:27:50;7.13;;;3.10;;
20623;SDS011;10471;42.736;23.346;2022-07-18T01:30:16;6.07;;;2.90;;
20623;SDS011;10471;42.736;23.346;2022-07-18T01:32:42;4.40;;;2.90;;
20623;SDS011;10471;42.736;23.346;2022-07-18T01:35:08;5.27;;;3.47;;
20623;SDS011;10471;42.736;23.346;2022-07-18T01:37:33;5.07;;;2.90;;
20623;SDS011;10471;42.736;23.346;2022-07-18T01:39:59;4.47;;;2.67;;
20623;SDS011;10471;42.736;23.346;2022-07-18T01:42:24;5.60;;;2.60;;
20623;SDS011;10471;42.736;23.346;2022-07-18T01:44:50;4.13;;;2.67;;
20623;SDS011;10471;42.736;23.346;2022-07-18T01:47:15;3.80;;;2.70;;
20623;SDS011;10471;42.736;23.346;2022-07-18T01:49:41;6.37;;;3.07;;
20623;SDS011;10471;42.736;23.346;2022-07-18T01:52:07;6.40;;;2.90;;
20623;SDS011;10471;42.736;23.346;2022-07-18T01:54:34;3.03;;;2.50;;
20623;SDS011;10471;42.736;23.346;2022-07-18T01:57:01;4.13;;;2.83;;
20623;SDS011;10471;42.736;23.346;2022-07-18T01:59:28;7.93;;;3.07;;
20623;SDS011;10471;42.736;23.346;2022-07-18T02:01:53;5.43;;;2.70;;
20623;SDS011;10471;42.736;23.346;2022-07-18T02:04:19;4.50;;;2.90;;
20623;SDS011;10471;42.736;23.346;2022-07-18T02:06:45;2.73;;;2.43;;
20623;SDS011;10471;42.736;23.346;2022-07-18T02:09:10;4.87;;;2.67;;
20623;SDS011;10471;42.736;23.346;2022-07-18T02:11:36;4.40;;;2.90;;
20623;SDS011;10471;42.736;23.346;2022-07-18T02:14:03;5.87;;;3.00;;
20623;SDS011;10471;42.736;23.346;2022-07-18T02:16:30;5.30;;;3.27;;
20623;SDS011;10471;42.736;23.346;2022-07-18T02:18:56;3.20;;;2.77;;
20623;SDS011;10471;42.736;23.346;2022-07-18T02:21:22;5.07;;;2.80;;
20623;SDS011;10471;42.736;23.346;2022-07-18T02:23:47;4.83;;;2.90;;
20623;SDS011;10471;42.736;23.346;2022-07-18T02:26:13;6.07;;;3.07;;
20623;SDS011;10471;42.736;23.346;2022-07-18T02:28:38;4.37;;;2.80;;
20623;SDS011;10471;42.736;23.346;2022-07-18T02:31:04;3.90;;;2.93;;
20623;SDS011;10471;42.736;23.346;2022-07-18T02:33:30;4.97;;;2.83;;
20623;SDS011;10471;42.736;23.346;2022-07-18T02:35:56;3.97;;;3.13;;
20623;SDS011;10471;42.736;23.346;2022-07-18T02:38:21;5.80;;;3.30;;
20623;SDS011;10471;42.736;23.346;2022-07-18T02:40:47;7.50;;;3.03;;
20623;SDS011;10471;42.736;23.346;2022-07-18T02:43:12;5.53;;;2.90;;
20623;SDS011;10471;42.736;23.346;2022-07-18T02:45:38;5.10;;;3.37;;
20623;SDS011;10471;42.736;23.346;2022-07-18T02:48:04;5.33;;;3.13;;
20623;SDS011;10471;42.736;23.346;2022-07-18T02:50:29;5.07;;;3.17;;
20623;SDS011;10471;42.736;23.346;2022-07-18T02:52:55;3.07;;;2.77;;
20623;SDS011;10471;42.736;23.346;2022-07-18T02:55:21;6.03;;;3.20;;
20623;SDS011;10471;42.736;23.346;2022-07-18T02:57:48;4.67;;;2.83;;
20623;SDS011;10471;42.736;23.346;2022-07-18T03:00:14;5.80;;;2.87;;
20623;SDS011;10471;42.736;23.346;2022-07-18T03:02:41;4.73;;;2.87;;
20623;SDS011;10471;42.736;23.346;2022-07-18T03:05:07;4.90;;;3.03;;
20623;SDS011;10471;42.736;23.346;2022-07-18T03:07:33;4.20;;;2.77;;
20623;SDS011;10471;42.736;23.346;2022-07-18T03:09:58;5.77;;;2.53;;
20623;SDS011;10471;42.736;23.346;2022-07-18T03:12:24;5.77;;;3.30;;
20623;SDS011;10471;42.736;23.346;2022-07-18T03:14:49;4.33;;;2.67;;
20623;SDS011;10471;42.736;23.346;2022-07-18T03:17:15;4.97;;;2.97;;
20623;SDS011;10471;42.736;23.346;2022-07-18T03:19:40;8.97;;;3.40;;
20623;SDS011;10471;42.736;23.346;2022-07-18T03:22:06;7.60;;;3.30;;
20623;SDS011;10471;42.736;23.346;2022-07-18T03:24:31;6.23;;;3.00;;
20623;SDS011;10471;42.736;23.346;2022-07-18T03:26:57;5.87;;;2.80;;
20623;SDS011;10471;42.736;23.346;2022-07-18T03:29:23;6.97;;;2.90;;
20623;SDS011;10471;42.736;23.346;2022-07-18T03:31:49;7.40;;;2.60;;
20623;SDS011;10471;42.736;23.346;2022-07-18T03:34:14;8.40;;;2.63;;
20623;SDS011;10471;42.736;23.346;2022-07-18T03:36:41;8.20;;;3.03;;
20623;SDS011;10471;42.736;23.346;2022-07-18T03:39:07;5.13;;;2.80;;
20623;SDS011;10471;42.736;23.346;2022-07-18T03:41:34;5.93;;;2.53;;
20623;SDS011;10471;42.736;23.346;2022-07-18T03:44:00;2.60;;;2.40;;
20623;SDS011;10471;42.736;23.346;2022-07-18T03:46:27;4.57;;;2.70;;
20623;SDS011;10471;42.736;23.346;2022-07-18T03:48:52;5.57;;;2.90;;
20623;SDS011;10471;42.736;23.346;2022-07-18T03:51:18;3.00;;;2.40;;
20623;SDS011;10471;42.736;23.346;2022-07-18T03:53:43;5.13;;;2.63;;
20623;SDS011;10471;42.736;23.346;2022-07-18T03:56:09;4.60;;;2.70;;
20623;SDS011;10471;42.736;23.346;2022-07-18T03:58:34;5.40;;;3.00;;
20623;SDS011;10471;42.736;23.346;2022-07-18T04:01:00;6.33;;;2.87;;
20623;SDS011;10471;42.736;23.346;2022-07-18T04:03:25;6.07;;;2.73;;
20623;SDS011;10471;42.736;23.346;2022-07-18T04:05:51;5.63;;;2.60;;
20623;SDS011;10471;42.736;23.346;2022-07-18T04:08:16;3.13;;;2.80;;
20623;SDS011;10471;42.736;23.346;2022-07-18T04:10:42;8.70;;;2.43;;
20623;SDS011;10471;42.736;23.346;2022-07-18T04:13:08;7.20;;;2.93;;
20623;SDS011;10471;42.736;23.346;2022-07-18T04:15:34;8.13;;;2.87;;
20623;SDS011;10471;42.736;23.346;2022-07-18T04:18:00;5.40;;;2.63;;
20623;SDS011;10471;42.736;23.346;2022-07-18T04:20:25;6.40;;;2.57;;
20623;SDS011;10471;42.736;23.346;2022-07-18T04:22:55;8.13;;;2.57;;
20623;SDS011;10471;42.736;23.346;2022-07-18T04:25:22;5.50;;;2.90;;
20623;SDS011;10471;42.736;23.346;2022-07-18T04:27:50;6.90;;;2.67;;
20623;SDS011;10471;42.736;23.346;2022-07-18T04:30:16;5.77;;;2.30;;
20623;SDS011;10471;42.736;23.346;2022-07-18T04:32:43;7.37;;;2.50;;
20623;SDS011;10471;42.736;23.346;2022-07-18T04:35:09;7.40;;;2.30;;
20623;SDS011;10471;42.736;23.346;2022-07-18T04:37:36;6.27;;;2.53;;
20623;SDS011;10471;42.736;23.346;2022-07-18T04:40:02;2.40;;;2.00;;
20623;SDS011;10471;42.736;23.346;2022-07-18T04:42:29;6.57;;;2.77;;
20623;SDS011;10471;42.736;23.346;2022-07-18T04:44:57;5.27;;;2.13;;
20623;SDS011;10471;42.736;23.346;2022-07-18T04:47:24;4.07;;;2.20;;
20623;SDS011;10471;42.736;23.346;2022-07-18T04:49:50;7.67;;;2.37;;
20623;SDS011;10471;42.736;23.346;2022-07-18T04:52:15;8.00;;;2.40;;
20623;SDS011;10471;42.736;23.346;2022-07-18T04:54:40;6.47;;;2.30;;
20623;SDS011;10471;42.736;23.346;2022-07-18T04:57:06;4.57;;;2.43;;
20623;SDS011;10471;42.736;23.346;2022-07-18T04:59:31;3.93;;;2.40;;
20623;SDS011;10471;42.736;23.346;2022-07-18T05:01:57;8.50;;;2.50;;
20623;SDS011;10471;42.736;23.346;2022-07-18T05:04:22;5.20;;;2.50;;
20623;SDS011;10471;42.736;23.346;2022-07-18T05:06:48;8.47;;;2.43;;
20623;SDS011;10471;42.736;23.346;2022-07-18T05:09:13;6.60;;;2.87;;
20623;SDS011;10471;42.736;23.346;2022-07-18T05:11:38;9.07;;;3.13;;
20623;SDS011;10471;42.736;23.346;2022-07-18T05:14:04;7.23;;;2.73;;
20623;SDS011;10471;42.736;23.346;2022-07-18T05:16:30;6.67;;;2.47;;
20623;SDS011;10471;42.736;23.346;2022-07-18T05:18:55;4.97;;;2.73;;
20623;SDS011;10471;42.736;23.346;2022-07-18T05:21:21;4.50;;;2.80;;
20623;SDS011;10471;42.736;23.346;2022-07-18T05:23:46;6.00;;;2.90;;
20623;SDS011;10471;42.736;23.346;2022-07-18T05:26:12;5.30;;;3.40;;
20623;SDS011;10471;42.736;23.346;2022-07-18T05:28:37;5.17;;;2.70;;
20623;SDS011;10471;42.736;23.346;2022-07-18T05:31:03;5.33;;;2.30;;
20623;SDS011;10471;42.736;23.346;2022-07-18T05:33:28;5.77;;;2.70;;
20623;SDS011;10471;42.736;23.346;2022-07-18T05:35:54;7.77;;;2.60;;
20623;SDS011;10471;42.736;23.346;2022-07-18T05:38:19;5.90;;;2.50;;
20623;SDS011;10471;42.736;23.346;2022-07-18T05:40:45;7.63;;;2.67;;
20623;SDS011;10471;42.736;23.346;2022-07-18T05:43:10;5.80;;;2.00;;
20623;SDS011;10471;42.736;23.346;2022-07-18T05:45:36;11.40;;;2.60;;
20623;SDS011;10471;42.736;23.346;2022-07-18T05:48:02;8.17;;;2.60;;
20623;SDS011;10471;42.736;23.346;2022-07-18T05:50:27;3.37;;;2.50;;
20623;SDS011;10471;42.736;23.346;2022-07-18T05:52:53;4.20;;;2.30;;
20623;SDS011;10471;42.736;23.346;2022-07-18T05:55:19;6.07;;;2.77;;
20623;SDS011;10471;42.736;23.346;2022-07-18T05:57:45;7.60;;;2.30;;
20623;SDS011;10471;42.736;23.346;2022-07-18T06:00:10;7.03;;;2.30;;
20623;SDS011;10471;42.736;23.346;2022-07-18T06:02:36;4.33;;;2.00;;
20623;SDS011;10471;42.736;23.346;2022-07-18T06:05:03;7.50;;;2.37;;
20623;SDS011;10471;42.736;23.346;2022-07-18T06:07:29;8.73;;;2.40;;
20623;SDS011;10471;42.736;23.346;2022-07-18T06:09:55;4.53;;;2.30;;
20623;SDS011;10471;42.736;23.346;2022-07-18T06:12:21;4.23;;;1.87;;
20623;SDS011;10471;42.736;23.346;2022-07-18T06:14:46;6.10;;;2.10;;
20623;SDS011;10471;42.736;23.346;2022-07-18T06:17:11;4.30;;;2.40;;
20623;SDS011;10471;42.736;23.346;2022-07-18T06:19:37;5.27;;;1.87;;
20623;SDS011;10471;42.736;23.346;2022-07-18T06:22:04;4.87;;;2.20;;
20623;SDS011;10471;42.736;23.346;2022-07-18T06:24:29;2.53;;;1.80;;
20623;SDS011;10471;42.736;23.346;2022-07-18T06:26:55;9.03;;;2.23;;
20623;SDS011;10471;42.736;23.346;2022-07-18T06:29:21;5.03;;;2.17;;
20623;SDS011;10471;42.736;23.346;2022-07-18T06:31:46;7.07;;;1.80;;
20623;SDS011;10471;42.736;23.346;2022-07-18T06:34:12;10.80;;;1.80;;
20623;SDS011;10471;42.736;23.346;2022-07-18T06:36:37;4.83;;;1.70;;
20623;SDS011;10471;42.736;23.346;2022-07-18T06:39:03;4.23;;;1.60;;
20623;SDS011;10471;42.736;23.346;2022-07-18T06:41:33;2.73;;;1.83;;
20623;SDS011;10471;42.736;23.346;2022-07-18T06:43:59;3.60;;;1.90;;
20623;SDS011;10471;42.736;23.346;2022-07-18T06:46:24;3.60;;;1.83;;
20623;SDS011;10471;42.736;23.346;2022-07-18T06:48:50;4.57;;;1.90;;
20623;SDS011;10471;42.736;23.346;2022-07-18T06:51:15;2.63;;;1.60;;
20623;SDS011;10471;42.736;23.346;2022-07-18T06:53:41;6.10;;;1.73;;
20623;SDS011;10471;42.736;23.346;2022-07-18T06:56:06;5.10;;;1.57;;
20623;SDS011;10471;42.736;23.346;2022-07-18T06:58:32;4.30;;;1.80;;
20623;SDS011;10471;42.736;23.346;2022-07-18T07:00:58;2.83;;;1.13;;
20623;SDS011;10471;42.736;23.346;2022-07-18T07:03:24;2.83;;;1.50;;
20623;SDS011;10471;42.736;23.346;2022-07-18T07:05:50;2.63;;;1.70;;
20623;SDS011;10471;42.736;23.346;2022-07-18T07:08:15;3.27;;;1.50;;
20623;SDS011;10471;42.736;23.346;2022-07-18T07:10:41;2.30;;;1.50;;
20623;SDS011;10471;42.736;23.346;2022-07-18T07:13:06;3.57;;;1.40;;
20623;SDS011;10471;42.736;23.346;2022-07-18T07:15:34;5.33;;;1.47;;
20623;SDS011;10471;42.736;23.346;2022-07-18T07:18:02;5.17;;;1.40;;
20623;SDS011;10471;42.736;23.346;2022-07-18T07:20:28;3.30;;;1.30;;
20623;SDS011;10471;42.736;23.346;2022-07-18T07:22:54;4.97;;;1.30;;
20623;SDS011;10471;42.736;23.346;2022-07-18T07:25:21;3.33;;;1.10;;
20623;SDS011;10471;42.736;23.346;2022-07-18T07:27:48;3.70;;;1.20;;
20623;SDS011;10471;42.736;23.346;2022-07-18T07:30:13;2.43;;;1.33;;
20623;SDS011;10471;42.736;23.346;2022-07-18T07:32:40;1.70;;;1.30;;
20623;SDS011;10471;42.736;23.346;2022-07-18T07:35:08;1.63;;;1.03;;
20623;SDS011;10471;42.736;23.346;2022-07-18T07:37:36;1.83;;;1.20;;
20623;SDS011;10471;42.736;23.346;2022-07-18T07:40:05;2.93;;;1.23;;
20623;SDS011;10471;42.736;23.346;2022-07-18T07:42:31;3.17;;;1.23;;
20623;SDS011;10471;42.736;23.346;2022-07-18T07:44:56;2.70;;;1.20;;
20623;SDS011;10471;42.736;23.346;2022-07-18T07:47:22;3.20;;;1.30;;
20623;SDS011;10471;42.736;23.346;2022-07-18T07:49:47;3.90;;;1.30;;
20623;SDS011;10471;42.736;23.346;2022-07-18T07:52:13;1.80;;;1.13;;
20623;SDS011;10471;42.736;23.346;2022-07-18T07:54:39;3.00;;;1.07;;
20623;SDS011;10471;42.736;23.346;2022-07-18T07:57:05;1.67;;;1.10;;
20623;SDS011;10471;42.736;23.346;2022-07-18T07:59:31;1.30;;;1.10;;
20623;SDS011;10471;42.736;23.346;2022-07-18T08:01:58;2.00;;;1.00;;
20623;SDS011;10471;42.736;23.346;2022-07-18T08:04:24;3.47;;;1.33;;
20623;SDS011;10471;42.736;23.346;2022-07-18T08:06:49;4.27;;;1.20;;
20623;SDS011;10471;42.736;23.346;2022-07-18T08:09:14;1.70;;;1.30;;
20623;SDS011;10471;42.736;23.346;2022-07-18T08:11:40;1.80;;;1.30;;
20623;SDS011;10471;42.736;23.346;2022-07-18T08:14:05;2.70;;;1.20;;
20623;SDS011;10471;42.736;23.346;2022-07-18T08:16:31;3.07;;;1.23;;
20623;SDS011;10471;42.736;23.346;2022-07-18T08:18:56;2.33;;;1.10;;
20623;SDS011;10471;42.736;23.346;2022-07-18T08:21:21;5.60;;;1.30;;
20623;SDS011;10471;42.736;23.346;2022-07-18T08:23:47;2.03;;;1.20;;
20623;SDS011;10471;42.736;23.346;2022-07-18T08:26:13;3.50;;;1.30;;
20623;SDS011;10471;42.736;23.346;2022-07-18T08:28:39;2.90;;;1.23;;
20623;SDS011;10471;42.736;23.346;2022-07-18T08:31:04;3.80;;;1.27;;
20623;SDS011;10471;42.736;23.346;2022-07-18T08:33:30;2.03;;;1.20;;
20623;SDS011;10471;42.736;23.346;2022-07-18T08:35:55;2.30;;;1.10;;
20623;SDS011;10471;42.736;23.346;2022-07-18T08:38:20;2.93;;;1.30;;
20623;SDS011;10471;42.736;23.346;2022-07-18T08:40:46;3.00;;;1.30;;
20623;SDS011;10471;42.736;23.346;2022-07-18T08:43:12;1.80;;;1.40;;
20623;SDS011;10471;42.736;23.346;2022-07-18T08:45:39;3.63;;;1.63;;
20623;SDS011;10471;42.736;23.346;2022-07-18T08:48:07;4.93;;;1.30;;
20623;SDS011;10471;42.736;23.346;2022-07-18T08:50:32;2.43;;;1.20;;
20623;SDS011;10471;42.736;23.346;2022-07-18T08:52:58;3.07;;;1.40;;
20623;SDS011;10471;42.736;23.346;2022-07-18T08:55:24;4.10;;;1.50;;
20623;SDS011;10471;42.736;23.346;2022-07-18T08:57:49;2.70;;;1.20;;
20623;SDS011;10471;42.736;23.346;2022-07-18T09:00:15;2.23;;;1.40;;
20623;SDS011;10471;42.736;23.346;2022-07-18T09:02:41;2.53;;;1.30;;
20623;SDS011;10471;42.736;23.346;2022-07-18T09:05:16;3.40;;;1.67;;
20623;SDS011;10471;42.736;23.346;2022-07-18T09:07:43;2.90;;;1.57;;
20623;SDS011;10471;42.736;23.346;2022-07-18T09:10:08;3.20;;;1.73;;
20623;SDS011;10471;42.736;23.346;2022-07-18T09:12:34;2.07;;;1.40;;
20623;SDS011;10471;42.736;23.346;2022-07-18T09:15:04;5.23;;;1.50;;
20623;SDS011;10471;42.736;23.346;2022-07-18T09:17:32;4.80;;;1.50;;
20623;SDS011;10471;42.736;23.346;2022-07-18T09:20:06;2.57;;;1.33;;
20623;SDS011;10471;42.736;23.346;2022-07-18T09:22:44;2.90;;;1.50;;
20623;SDS011;10471;42.736;23.346;2022-07-18T09:25:19;2.10;;;1.53;;
20623;SDS011;10471;42.736;23.346;2022-07-18T09:27:52;2.60;;;1.40;;
20623;SDS011;10471;42.736;23.346;2022-07-18T09:30:31;3.20;;;1.60;;
20623;SDS011;10471;42.736;23.346;2022-07-18T09:35:32;3.93;;;1.70;;
20623;SDS011;10471;42.736;23.346;2022-07-18T09:38:01;4.43;;;1.80;;
20623;SDS011;10471;42.736;23.346;2022-07-18T09:42:59;3.40;;;1.97;;
20623;SDS011;10471;42.736;23.346;2022-07-18T09:45:28;4.33;;;1.90;;
20623;SDS011;10471;42.736;23.346;2022-07-18T09:48:00;3.73;;;1.60;;
20623;SDS011;10471;42.736;23.346;2022-07-18T09:50:30;3.73;;;1.80;;
20623;SDS011;10471;42.736;23.346;2022-07-18T09:53:03;3.43;;;1.83;;
20623;SDS011;10471;42.736;23.346;2022-07-18T09:55:30;2.40;;;1.67;;
20623;SDS011;10471;42.736;23.346;2022-07-18T09:57:58;2.97;;;1.83;;
20623;SDS011;10471;42.736;23.346;2022-07-18T10:00:30;5.17;;;2.07;;
20623;SDS011;10471;42.736;23.346;2022-07-18T10:02:58;4.60;;;1.80;;
20623;SDS011;10471;42.736;23.346;2022-07-18T10:05:27;2.07;;;1.90;;
20623;SDS011;10471;42.736;23.346;2022-07-18T10:07:54;4.53;;;2.00;;
20623;SDS011;10471;42.736;23.346;2022-07-18T10:10:21;3.37;;;2.40;;
20623;SDS011;10471;42.736;23.346;2022-07-18T10:12:50;6.33;;;2.30;;
20623;SDS011;10471;42.736;23.346;2022-07-18T10:15:17;11.87;;;2.20;;
20623;SDS011;10471;42.736;23.346;2022-07-18T10:17:46;6.27;;;2.20;;
20623;SDS011;10471;42.736;23.346;2022-07-18T10:20:11;4.60;;;2.30;;
20623;SDS011;10471;42.736;23.346;2022-07-18T10:22:38;8.10;;;2.37;;
20623;SDS011;10471;42.736;23.346;2022-07-18T10:25:07;3.70;;;2.10;;
20623;SDS011;10471;42.736;23.346;2022-07-18T10:27:47;4.13;;;2.10;;
20623;SDS011;10471;42.736;23.346;2022-07-18T10:30:14;3.07;;;2.20;;
20623;SDS011;10471;42.736;23.346;2022-07-18T10:32:40;5.03;;;2.33;;
20623;SDS011;10471;42.736;23.346;2022-07-18T10:35:07;3.47;;;1.90;;
20623;SDS011;10471;42.736;23.346;2022-07-18T10:37:33;4.77;;;2.47;;
20623;SDS011;10471;42.736;23.346;2022-07-18T10:43:30;3.77;;;2.00;;
20623;SDS011;10471;42.736;23.346;2022-07-18T10:45:51;3.23;;;2.50;;
20623;SDS011;10471;42.736;23.346;2022-07-18T10:51:07;3.23;;;2.20;;
20623;SDS011;10471;42.736;23.346;2022-07-18T10:56:18;4.70;;;2.03;;
20623;SDS011;10471;42.736;23.346;2022-07-18T10:58:43;2.83;;;2.40;;
20623;SDS011;10471;42.736;23.346;2022-07-18T11:01:13;3.10;;;2.10;;
20623;SDS011;10471;42.736;23.346;2022-07-18T11:03:41;5.47;;;2.10;;
20623;SDS011;10471;42.736;23.346;2022-07-18T11:06:07;7.33;;;2.17;;
20623;SDS011;10471;42.736;23.346;2022-07-18T11:08:33;4.47;;;2.10;;
20623;SDS011;10471;42.736;23.346;2022-07-18T11:13:36;3.33;;;1.87;;
20623;SDS011;10471;42.736;23.346;2022-07-18T11:23:47;4.07;;;2.13;;
20623;SDS011;10471;42.736;23.346;2022-07-18T11:26:16;6.87;;;2.40;;
20623;SDS011;10471;42.736;23.346;2022-07-18T11:28:44;2.90;;;2.27;;
20623;SDS011;10471;42.736;23.346;2022-07-18T11:31:12;4.17;;;2.20;;
20623;SDS011;10471;42.736;23.346;2022-07-18T11:33:39;4.10;;;2.13;;
20623;SDS011;10471;42.736;23.346;2022-07-18T11:36:08;4.43;;;2.23;;
20623;SDS011;10471;42.736;23.346;2022-07-18T11:38:36;2.70;;;1.97;;
20623;SDS011;10471;42.736;23.346;2022-07-18T11:41:04;3.53;;;2.03;;
20623;SDS011;10471;42.736;23.346;2022-07-18T11:43:30;3.60;;;2.23;;
20623;SDS011;10471;42.736;23.346;2022-07-18T11:45:59;3.70;;;2.30;;
20623;SDS011;10471;42.736;23.346;2022-07-18T11:48:24;4.57;;;2.30;;
20623;SDS011;10471;42.736;23.346;2022-07-18T11:50:50;4.27;;;2.20;;
20623;SDS011;10471;42.736;23.346;2022-07-18T11:53:15;7.03;;;2.53;;
20623;SDS011;10471;42.736;23.346;2022-07-18T11:55:41;4.07;;;2.30;;
20623;SDS011;10471;42.736;23.346;2022-07-18T11:58:16;6.15;;;2.22;;
20623;SDS011;10471;42.736;23.346;2022-07-18T12:00:42;4.23;;;2.33;;
20623;SDS011;10471;42.736;23.346;2022-07-18T12:05:40;4.78;;;2.30;;
20623;SDS011;10471;42.736;23.346;2022-07-18T12:11:03;5.95;;;2.45;;
20623;SDS011;10471;42.736;23.346;2022-07-18T12:18:51;4.28;;;2.33;;
20623;SDS011;10471;42.736;23.346;2022-07-18T12:21:18;6.13;;;2.40;;
20623;SDS011;10471;42.736;23.346;2022-07-18T12:23:43;4.32;;;2.70;;
20623;SDS011;10471;42.736;23.346;2022-07-18T12:26:09;4.20;;;2.42;;
20623;SDS011;10471;42.736;23.346;2022-07-18T12:28:34;6.20;;;3.60;;
20623;SDS011;10471;42.736;23.346;2022-07-18T12:31:00;4.03;;;2.33;;
20623;SDS011;10471;42.736;23.346;2022-07-18T12:33:25;5.32;;;2.55;;
20623;SDS011;10471;42.736;23.346;2022-07-18T12:35:59;5.53;;;2.55;;
20623;SDS011;10471;42.736;23.346;2022-07-18T12:38:26;5.38;;;2.45;;
20623;SDS011;10471;42.736;23.346;2022-07-18T12:40:53;7.28;;;2.25;;
20623;SDS011;10471;42.736;23.346;2022-07-18T12:43:32;3.50;;;2.20;;
20623;SDS011;10471;42.736;23.346;2022-07-18T12:46:00;8.52;;;2.40;;
20623;SDS011;10471;42.736;23.346;2022-07-18T12:48:27;6.40;;;2.65;;
20623;SDS011;10471;42.736;23.346;2022-07-18T12:51:03;4.45;;;2.00;;
20623;SDS011;10471;42.736;23.346;2022-07-18T12:53:31;4.00;;;2.35;;
20623;SDS011;10471;42.736;23.346;2022-07-18T12:55:57;8.88;;;2.70;;
20623;SDS011;10471;42.736;23.346;2022-07-18T12:58:23;4.70;;;2.28;;
20623;SDS011;10471;42.736;23.346;2022-07-18T13:00:48;3.53;;;2.60;;
20623;SDS011;10471;42.736;23.346;2022-07-18T13:03:14;3.63;;;2.40;;
20623;SDS011;10471;42.736;23.346;2022-07-18T13:05:40;3.05;;;2.25;;
20623;SDS011;10471;42.736;23.346;2022-07-18T13:08:06;4.80;;;2.40;;
20623;SDS011;10471;42.736;23.346;2022-07-18T13:10:34;6.60;;;2.55;;
20623;SDS011;10471;42.736;23.346;2022-07-18T13:13:03;2.88;;;2.22;;
20623;SDS011;10471;42.736;23.346;2022-07-18T13:15:30;7.43;;;2.40;;
20623;SDS011;10471;42.736;23.346;2022-07-18T13:17:56;4.32;;;2.65;;
20623;SDS011;10471;42.736;23.346;2022-07-18T13:20:22;5.20;;;2.30;;
20623;SDS011;10471;42.736;23.346;2022-07-18T13:22:47;4.90;;;2.67;;
20623;SDS011;10471;42.736;23.346;2022-07-18T13:25:13;4.38;;;2.42;;
20623;SDS011;10471;42.736;23.346;2022-07-18T13:27:38;5.53;;;2.35;;
20623;SDS011;10471;42.736;23.346;2022-07-18T13:30:04;2.80;;;2.30;;
20623;SDS011;10471;42.736;23.346;2022-07-18T13:32:32;3.97;;;2.63;;
20623;SDS011;10471;42.736;23.346;2022-07-18T13:34:57;5.88;;;2.40;;
20623;SDS011;10471;42.736;23.346;2022-07-18T13:37:23;4.00;;;2.60;;
20623;SDS011;10471;42.736;23.346;2022-07-18T13:39:48;4.78;;;2.30;;
20623;SDS011;10471;42.736;23.346;2022-07-18T13:42:14;5.32;;;2.63;;
20623;SDS011;10471;42.736;23.346;2022-07-18T13:44:40;3.58;;;2.47;;
20623;SDS011;10471;42.736;23.346;2022-07-18T13:47:05;3.70;;;2.38;;
20623;SDS011;10471;42.736;23.346;2022-07-18T13:49:31;6.22;;;2.63;;
20623;SDS011;10471;42.736;23.346;2022-07-18T13:51:56;4.10;;;2.60;;
20623;SDS011;10471;42.736;23.346;2022-07-18T13:54:22;5.63;;;2.30;;
20623;SDS011;10471;42.736;23.346;2022-07-18T13:56:47;7.32;;;2.78;;
20623;SDS011;10471;42.736;23.346;2022-07-18T13:59:13;8.02;;;3.03;;
20623;SDS011;10471;42.736;23.346;2022-07-18T14:01:39;7.25;;;2.90;;
20623;SDS011;10471;42.736;23.346;2022-07-18T14:04:05;7.10;;;3.10;;
20623;SDS011;10471;42.736;23.346;2022-07-18T14:06:31;5.60;;;2.80;;
20623;SDS011;10471;42.736;23.346;2022-07-18T14:08:57;5.65;;;2.92;;
20623;SDS011;10471;42.736;23.346;2022-07-18T14:11:22;5.65;;;2.35;;
20623;SDS011;10471;42.736;23.346;2022-07-18T14:13:47;5.60;;;2.97;;
20623;SDS011;10471;42.736;23.346;2022-07-18T14:16:13;5.55;;;2.72;;
20623;SDS011;10471;42.736;23.346;2022-07-18T14:18:39;5.15;;;2.95;;
20623;SDS011;10471;42.736;23.346;2022-07-18T14:21:05;5.53;;;2.97;;
20623;SDS011;10471;42.736;23.346;2022-07-18T14:23:30;7.22;;;2.95;;
20623;SDS011;10471;42.736;23.346;2022-07-18T14:25:56;12.55;;;3.30;;
20623;SDS011;10471;42.736;23.346;2022-07-18T14:28:22;7.53;;;2.90;;
20623;SDS011;10471;42.736;23.346;2022-07-18T14:30:47;4.75;;;2.78;;
20623;SDS011;10471;42.736;23.346;2022-07-18T14:33:12;7.05;;;2.80;;
20623;SDS011;10471;42.736;23.346;2022-07-18T14:35:38;5.38;;;2.83;;
20623;SDS011;10471;42.736;23.346;2022-07-18T14:38:04;4.85;;;2.92;;
20623;SDS011;10471;42.736;23.346;2022-07-18T14:40:30;5.18;;;2.90;;
20623;SDS011;10471;42.736;23.346;2022-07-18T14:42:55;3.00;;;2.70;;
20623;SDS011;10471;42.736;23.346;2022-07-18T14:45:21;8.05;;;2.83;;
20623;SDS011;10471;42.736;23.346;2022-07-18T14:47:46;3.15;;;2.50;;
20623;SDS011;10471;42.736;23.346;2022-07-18T14:50:12;3.95;;;2.80;;
20623;SDS011;10471;42.736;23.346;2022-07-18T14:52:37;4.50;;;2.85;;
20623;SDS011;10471;42.736;23.346;2022-07-18T14:55:04;5.00;;;2.88;;
20623;SDS011;10471;42.736;23.346;2022-07-18T14:57:30;5.28;;;2.50;;
20623;SDS011;10471;42.736;23.346;2022-07-18T14:59:55;3.83;;;2.80;;
20623;SDS011;10471;42.736;23.346;2022-07-18T15:02:21;5.03;;;2.90;;